Time;durP1;ratioP1;P1;durP2;ratioP2;P2;SDS_P1;SDS_P2;PMS_P1;PMS_P2;Temp;Humidity;BMP_temperature;BMP_pressure;BME280_temperature;BME280_humidity;BME280_pressure;Samples;Min_cycle;Max_cycle;Signal;HPM_P1;HPM_P2
2024/01/11 00:01:31;;;;;;;15.20;7.97;;;19.00;47.80;;;;;;5077799;28;20036;-52
2024/01/11 00:03:57;;;;;;;14.38;7.25;;;19.10;47.90;;;;;;5073082;28;20079;-57
2024/01/11 00:06:23;;;;;;;14.65;7.85;;;19.00;47.60;;;;;;5073601;28;20059;-57
2024/01/11 00:08:48;;;;;;;13.10;7.50;;;19.10;47.90;;;;;;5075709;28;20395;-56
2024/01/11 00:11:14;;;;;;;12.85;7.80;;;19.00;47.40;;;;;;5082220;28;20078;-54
2024/01/11 00:13:40;;;;;;;12.43;7.40;;;19.10;47.40;;;;;;5084489;28;20077;-54
2024/01/11 00:16:06;;;;;;;12.77;7.70;;;19.00;47.40;;;;;;5092900;28;20103;-54
2024/01/11 00:18:31;;;;;;;16.33;8.02;;;19.00;47.00;;;;;;5079284;28;20048;-57
2024/01/11 00:20:57;;;;;;;11.50;6.88;;;19.00;47.20;;;;;;5088241;28;20036;-53
2024/01/11 00:23:23;;;;;;;13.30;7.75;;;19.00;47.60;;;;;;5082418;28;20100;-55
2024/01/11 00:25:49;;;;;;;12.38;7.47;;;19.00;47.10;;;;;;5064452;28;20040;-55
2024/01/11 00:28:14;;;;;;;15.00;7.20;;;19.00;48.10;;;;;;5070096;28;20028;-56
2024/01/11 00:30:40;;;;;;;12.50;6.82;;;19.00;47.30;;;;;;5088336;28;20016;-54
2024/01/11 00:33:06;;;;;;;13.27;7.00;;;19.00;47.10;;;;;;5084847;28;20029;-57
2024/01/11 00:35:32;;;;;;;13.10;7.07;;;19.00;47.30;;;;;;5079088;28;20494;-55
2024/01/11 00:37:58;;;;;;;13.60;7.18;;;19.00;47.20;;;;;;5086700;28;20024;-55
2024/01/11 00:40:24;;;;;;;17.73;6.82;;;19.00;47.10;;;;;;5083931;28;20486;-55
2024/01/11 00:42:49;;;;;;;15.23;6.97;;;19.10;47.50;;;;;;5095489;22;20048;-54
2024/01/11 00:45:15;;;;;;;15.23;6.88;;;19.00;47.00;;;;;;5033282;28;20029;-53
2024/01/11 00:47:41;;;;;;;12.35;6.50;;;19.00;47.50;;;;;;5014356;28;20078;-55
2024/01/11 00:50:07;;;;;;;13.55;7.07;;;19.00;47.50;;;;;;5051100;28;20415;-52
2024/01/11 00:52:33;;;;;;;12.88;6.38;;;19.00;47.20;;;;;;5054840;28;20480;-55
2024/01/11 00:54:59;;;;;;;10.90;6.53;;;19.00;47.40;;;;;;5050452;28;20063;-54
2024/01/11 00:57:24;;;;;;;9.60;6.10;;;19.00;47.10;;;;;;5050082;28;20136;-55
2024/01/11 00:59:50;;;;;;;12.77;6.55;;;19.00;46.90;;;;;;5042508;28;20029;-51
2024/01/11 01:02:16;;;;;;;10.70;6.40;;;19.00;46.70;;;;;;5040813;28;20031;-50
2024/01/11 01:04:42;;;;;;;11.88;6.40;;;19.00;47.50;;;;;;5045649;28;20594;-50
2024/01/11 01:07:07;;;;;;;10.48;6.43;;;19.00;47.30;;;;;;5048798;28;20029;-49
2024/01/11 01:09:34;;;;;;;11.35;6.20;;;19.00;47.00;;;;;;5046791;28;20039;-53
2024/01/11 01:12:00;;;;;;;11.85;6.28;;;19.00;47.40;;;;;;5049362;28;20570;-54
2024/01/11 01:14:26;;;;;;;11.68;6.30;;;19.00;47.30;;;;;;5049772;28;20104;-55
2024/01/11 01:16:51;;;;;;;10.15;6.10;;;18.90;46.90;;;;;;5043783;28;20032;-49
2024/01/11 01:19:17;;;;;;;11.55;6.07;;;18.90;47.00;;;;;;5045669;28;20550;-50
2024/01/11 01:21:43;;;;;;;10.55;5.57;;;18.90;46.90;;;;;;5048859;28;20083;-51
2024/01/11 01:24:09;;;;;;;10.75;5.82;;;18.90;46.50;;;;;;5049712;28;20069;-53
2024/01/11 01:26:35;;;;;;;10.48;5.95;;;19.00;46.90;;;;;;5049499;28;20049;-51
2024/01/11 01:29:01;;;;;;;13.25;6.05;;;18.90;46.90;;;;;;5046279;28;20123;-55
2024/01/11 01:31:27;;;;;;;11.55;5.53;;;19.00;47.10;;;;;;5042084;28;20075;-54
2024/01/11 01:33:52;;;;;;;14.15;5.88;;;18.90;46.80;;;;;;5050077;28;20107;-53
2024/01/11 01:36:18;;;;;;;10.23;5.80;;;18.90;46.60;;;;;;5033326;28;20116;-55
2024/01/11 01:38:44;;;;;;;12.32;5.50;;;18.90;46.50;;;;;;5047588;28;20112;-50
2024/01/11 01:41:09;;;;;;;12.60;5.78;;;18.90;46.50;;;;;;5044279;28;20071;-52
2024/01/11 01:43:35;;;;;;;8.93;5.13;;;18.90;46.60;;;;;;5044413;28;20032;-51
2024/01/11 01:46:02;;;;;;;9.70;5.35;;;18.90;46.50;;;;;;5049472;28;20021;-51
2024/01/11 01:48:28;;;;;;;8.63;5.20;;;18.90;46.30;;;;;;5048962;28;20116;-49
2024/01/11 01:50:55;;;;;;;9.98;5.55;;;19.00;46.30;;;;;;5048275;28;20377;-54
2024/01/11 01:53:22;;;;;;;9.60;5.22;;;18.90;46.70;;;;;;5043094;28;20368;-55
2024/01/11 01:55:50;;;;;;;8.73;5.28;;;18.90;47.80;;;;;;5048453;28;20611;-52
2024/01/11 01:58:17;;;;;;;8.88;5.32;;;19.00;47.00;;;;;;5048793;28;20573;-53
2024/01/11 02:00:45;;;;;;;10.05;4.97;;;19.00;46.70;;;;;;5042626;28;20028;-55
2024/01/11 02:03:12;;;;;;;8.77;5.30;;;18.90;47.00;;;;;;5049523;28;20480;-52
2024/01/11 02:05:38;;;;;;;9.25;5.40;;;18.90;47.30;;;;;;5048141;28;20098;-51
2024/01/11 02:08:08;;;;;;;9.13;5.38;;;18.90;47.60;;;;;;5041797;28;20124;-52
2024/01/11 02:10:35;;;;;;;12.85;5.88;;;18.90;47.50;;;;;;5047488;28;20072;-50
2024/01/11 02:13:01;;;;;;;10.07;5.32;;;18.90;47.60;;;;;;5048899;28;20053;-54
2024/01/11 02:15:27;;;;;;;12.20;4.97;;;18.90;47.30;;;;;;5041140;28;20118;-51
2024/01/11 02:17:53;;;;;;;8.52;5.15;;;18.90;47.40;;;;;;5047693;28;20128;-49
2024/01/11 02:20:18;;;;;;;9.82;4.93;;;18.90;47.20;;;;;;5048783;28;20033;-50
2024/01/11 02:22:50;;;;;;;9.10;4.97;;;18.90;47.50;;;;;;5046260;28;20029;-52
2024/01/11 02:25:16;;;;;;;8.90;4.97;;;18.90;47.70;;;;;;5048680;28;20427;-57
2024/01/11 02:27:48;;;;;;;11.52;4.97;;;18.90;47.70;;;;;;5047916;28;20477;-55
2024/01/11 02:30:15;;;;;;;11.02;5.15;;;18.90;47.20;;;;;;5048365;28;20073;-53
2024/01/11 02:32:43;;;;;;;9.48;4.75;;;18.90;47.20;;;;;;5044250;28;20117;-55
2024/01/11 02:35:08;;;;;;;7.60;4.60;;;18.90;47.20;;;;;;5044609;28;20419;-52
2024/01/11 02:37:37;;;;;;;8.38;4.70;;;18.90;47.40;;;;;;5046389;28;20113;-54
2024/01/11 02:40:03;;;;;;;13.07;4.78;;;18.90;47.00;;;;;;5041086;28;20154;-52
2024/01/11 02:42:29;;;;;;;7.80;4.13;;;18.90;47.60;;;;;;5047814;28;20484;-52
2024/01/11 02:44:54;;;;;;;8.55;4.72;;;18.90;47.30;;;;;;5048585;28;20067;-53
2024/01/11 02:47:20;;;;;;;6.20;3.88;;;18.90;47.80;;;;;;5048495;28;20078;-51
2024/01/11 02:49:46;;;;;;;7.57;4.63;;;18.80;47.00;;;;;;5049718;28;20075;-56
2024/01/11 02:52:12;;;;;;;7.80;4.38;;;18.90;46.60;;;;;;5051250;28;20055;-52
2024/01/11 02:54:38;;;;;;;8.07;4.53;;;18.80;46.80;;;;;;5046079;28;20021;-50
2024/01/11 02:57:04;;;;;;;10.48;5.10;;;18.80;46.90;;;;;;5052481;28;20029;-52
2024/01/11 02:59:30;;;;;;;8.05;4.10;;;18.80;47.10;;;;;;5052045;28;20063;-49
2024/01/11 03:01:55;;;;;;;7.22;4.28;;;18.80;46.60;;;;;;5045818;28;20025;-53
2024/01/11 03:04:21;;;;;;;10.55;4.95;;;18.80;46.80;;;;;;5049537;28;20068;-51
2024/01/11 03:06:47;;;;;;;8.32;4.45;;;18.80;47.00;;;;;;5045730;28;20025;-52
2024/01/11 03:09:13;;;;;;;8.30;4.78;;;18.80;47.50;;;;;;5049734;28;20539;-53
2024/01/11 03:11:39;;;;;;;7.88;4.00;;;18.90;46.80;;;;;;5050770;28;20041;-50
2024/01/11 03:14:04;;;;;;;7.82;4.20;;;18.90;46.70;;;;;;5052033;28;20024;-53
2024/01/11 03:16:30;;;;;;;6.45;4.22;;;18.90;47.00;;;;;;5051472;28;20104;-51
2024/01/11 03:18:56;;;;;;;8.95;4.80;;;18.90;46.80;;;;;;5051944;28;20024;-54
2024/01/11 03:21:22;;;;;;;8.65;4.55;;;18.80;47.00;;;;;;5050304;28;20112;-55
2024/01/11 03:23:48;;;;;;;8.70;4.50;;;18.90;46.90;;;;;;5050849;28;20032;-53
2024/01/11 03:26:15;;;;;;;7.03;4.25;;;18.80;46.90;;;;;;5052539;28;20059;-54
2024/01/11 03:28:41;;;;;;;8.18;4.28;;;18.80;47.00;;;;;;5051790;28;20370;-51
2024/01/11 03:31:09;;;;;;;10.45;4.45;;;18.80;47.00;;;;;;5052574;28;20028;-54
2024/01/11 03:33:35;;;;;;;9.00;4.10;;;18.80;46.90;;;;;;5049649;28;20029;-58
2024/01/11 03:36:07;;;;;;;5.70;3.95;;;18.80;47.20;;;;;;5052134;28;20428;-50
2024/01/11 03:38:33;;;;;;;6.35;4.05;;;18.80;47.10;;;;;;5050311;28;20028;-51
2024/01/11 03:40:59;;;;;;;6.32;3.92;;;18.80;47.50;;;;;;5051660;28;20051;-51
2024/01/11 03:43:25;;;;;;;8.40;4.25;;;18.80;47.20;;;;;;5051546;28;20059;-53
2024/01/11 03:45:50;;;;;;;7.93;4.35;;;18.80;46.90;;;;;;5052272;28;20033;-51
2024/01/11 03:48:16;;;;;;;6.50;4.00;;;18.80;47.00;;;;;;5051366;28;20029;-52
2024/01/11 03:50:42;;;;;;;9.90;4.13;;;18.80;47.20;;;;;;5049289;28;20031;-55
2024/01/11 03:53:08;;;;;;;7.47;3.95;;;18.80;47.50;;;;;;5050846;28;20025;-54
2024/01/11 03:55:34;;;;;;;7.63;3.90;;;18.80;47.00;;;;;;5045741;28;20147;-50
2024/01/11 03:57:59;;;;;;;8.00;4.28;;;18.80;47.30;;;;;;5050999;28;20500;-53
2024/01/11 04:00:25;;;;;;;6.35;4.07;;;18.80;47.30;;;;;;5050854;28;20433;-56
2024/01/11 04:02:51;;;;;;;7.15;3.88;;;18.80;47.10;;;;;;5051933;28;20443;-56
2024/01/11 04:05:16;;;;;;;7.75;3.75;;;18.80;47.10;;;;;;5050844;28;20108;-53
2024/01/11 04:07:42;;;;;;;6.55;3.53;;;18.80;47.00;;;;;;5051817;28;20036;-55
2024/01/11 04:10:11;;;;;;;9.07;3.90;;;18.80;47.00;;;;;;5050287;28;20021;-55
2024/01/11 04:12:37;;;;;;;5.28;3.35;;;18.80;47.20;;;;;;5051955;28;20025;-56
2024/01/11 04:15:03;;;;;;;5.68;3.22;;;18.80;47.50;;;;;;5051305;28;20078;-52
2024/01/11 04:17:29;;;;;;;7.65;3.85;;;18.80;46.80;;;;;;5045138;28;20068;-57
2024/01/11 04:19:55;;;;;;;5.47;3.47;;;18.80;47.20;;;;;;5050724;28;20453;-57
2024/01/11 04:22:21;;;;;;;6.47;3.90;;;18.80;46.80;;;;;;5049838;28;20024;-56
2024/01/11 04:24:46;;;;;;;6.55;3.50;;;18.80;47.30;;;;;;5047258;28;20059;-56
2024/01/11 04:27:12;;;;;;;7.00;3.63;;;18.80;46.90;;;;;;5045295;28;20394;-56
2024/01/11 04:29:38;;;;;;;6.03;3.53;;;18.80;47.10;;;;;;5049860;28;20029;-55
2024/01/11 04:32:04;;;;;;;5.00;3.33;;;18.80;47.20;;;;;;5050082;28;20083;-53
2024/01/11 04:34:30;;;;;;;8.93;3.90;;;18.80;47.00;;;;;;5050281;28;20021;-58
2024/01/11 04:36:55;;;;;;;6.10;3.72;;;18.80;47.10;;;;;;5051262;28;20095;-53
2024/01/11 04:39:21;;;;;;;6.90;3.60;;;18.80;46.80;;;;;;5051188;28;20040;-54
2024/01/11 04:41:47;;;;;;;6.20;3.40;;;18.80;47.10;;;;;;5049988;28;20025;-57
2024/01/11 04:44:13;;;;;;;8.30;4.18;;;18.80;47.20;;;;;;5047524;28;20503;-51
2024/01/11 04:46:39;;;;;;;6.18;3.72;;;18.80;47.30;;;;;;5044913;28;20025;-52
2024/01/11 04:49:05;;;;;;;9.88;3.95;;;18.80;47.50;;;;;;5043794;28;20066;-54
2024/01/11 04:51:31;;;;;;;7.68;3.55;;;18.80;47.10;;;;;;5045343;28;20029;-55
2024/01/11 04:53:57;;;;;;;7.38;3.75;;;18.80;47.30;;;;;;5047104;28;20044;-52
2024/01/11 04:56:22;;;;;;;4.82;3.25;;;18.80;47.40;;;;;;5042789;28;20368;-54
2024/01/11 04:58:48;;;;;;;7.65;3.65;;;18.80;47.40;;;;;;5047010;28;20040;-51
2024/01/11 05:01:17;;;;;;;5.93;3.30;;;18.80;47.10;;;;;;5048812;28;20029;-54
2024/01/11 05:03:45;;;;;;;6.43;3.97;;;18.80;47.30;;;;;;5050139;28;20097;-52
2024/01/11 05:06:18;;;;;;;5.95;3.35;;;18.80;47.20;;;;;;5049981;28;20267;-55
2024/01/11 05:08:45;;;;;;;8.02;3.60;;;18.80;46.90;;;;;;5043965;28;20060;-53
2024/01/11 05:11:24;;;;;;;5.30;3.80;;;18.80;47.40;;;;;;5050595;28;20021;-50
2024/01/11 05:13:51;;;;;;;5.15;3.42;;;18.80;47.80;;;;;;5040835;28;20435;-52
2024/01/11 05:16:21;;;;;;;8.35;3.65;;;18.80;47.30;;;;;;5049592;28;20122;-50
2024/01/11 05:18:47;;;;;;;;;;;18.80;47.10;;;;;;5050745;28;20020;-54
2024/01/11 05:21:12;;;;;;;7.32;3.83;;;18.80;47.30;;;;;;5047677;28;19939;-51
2024/01/11 05:23:39;;;;;;;7.40;3.85;;;18.80;47.60;;;;;;5043967;28;20489;-51
2024/01/11 05:26:05;;;;;;;6.63;3.63;;;18.80;47.90;;;;;;5042345;28;20041;-53
2024/01/11 05:28:31;;;;;;;7.65;4.07;;;18.80;47.80;;;;;;5049279;28;20039;-50
2024/01/11 05:30:57;;;;;;;7.35;3.80;;;18.80;47.60;;;;;;5048918;28;20036;-52
2024/01/11 05:33:22;;;;;;;5.70;3.63;;;18.80;47.50;;;;;;5049396;28;20048;-51
2024/01/11 05:35:48;;;;;;;6.80;3.80;;;18.80;47.70;;;;;;5047088;28;20017;-52
2024/01/11 05:38:14;;;;;;;6.35;3.60;;;18.90;47.90;;;;;;5049230;28;20036;-53
2024/01/11 05:40:40;;;;;;;7.60;3.97;;;18.80;47.40;;;;;;5048703;28;20108;-56
2024/01/11 05:43:06;;;;;;;5.40;3.38;;;18.80;47.70;;;;;;5049265;28;20033;-49
2024/01/11 05:45:33;;;;;;;9.43;3.83;;;18.90;47.70;;;;;;5049157;28;20062;-50
2024/01/11 05:47:59;;;;;;;7.03;3.85;;;18.90;48.20;;;;;;5047074;28;20033;-51
2024/01/11 05:50:25;;;;;;;6.28;3.90;;;18.90;47.70;;;;;;5047318;28;20395;-49
2024/01/11 05:52:53;;;;;;;7.07;3.75;;;18.90;47.80;;;;;;5042902;28;20028;-58
2024/01/11 05:55:19;;;;;;;5.75;3.80;;;18.90;47.80;;;;;;5042945;28;20069;-54
2024/01/11 05:57:45;;;;;;;6.70;4.30;;;18.90;47.60;;;;;;5049581;28;20096;-58
2024/01/11 06:00:11;;;;;;;9.25;3.70;;;18.90;47.30;;;;;;5048970;28;20147;-52
2024/01/11 06:02:37;;;;;;;9.95;3.97;;;18.80;47.70;;;;;;5049785;28;20025;-51
2024/01/11 06:05:03;;;;;;;5.68;3.63;;;18.80;47.30;;;;;;5049301;28;20021;-50
2024/01/11 06:07:29;;;;;;;8.77;4.57;;;18.80;47.50;;;;;;5049043;28;20096;-55
2024/01/11 06:09:55;;;;;;;8.13;4.07;;;18.80;47.60;;;;;;5048734;28;20105;-52
2024/01/11 06:12:21;;;;;;;7.80;3.90;;;18.80;47.70;;;;;;5048883;28;20029;-52
2024/01/11 06:14:47;;;;;;;7.65;3.78;;;18.80;47.50;;;;;;5048023;28;20021;-52
2024/01/11 06:17:12;;;;;;;7.13;3.72;;;18.80;47.90;;;;;;5048805;28;20025;-52
2024/01/11 06:19:38;;;;;;;6.13;3.65;;;18.80;47.70;;;;;;5044235;28;20439;-53
2024/01/11 06:22:05;;;;;;;7.53;4.40;;;18.80;47.50;;;;;;5041527;28;20036;-51
2024/01/11 06:24:31;;;;;;;7.28;4.15;;;18.80;47.70;;;;;;5045247;28;20376;-49
2024/01/11 06:26:57;;;;;;;9.45;4.35;;;18.80;47.60;;;;;;5044579;28;20017;-50
2024/01/11 06:29:23;;;;;;;8.07;3.92;;;18.80;47.50;;;;;;5040909;28;20043;-52
2024/01/11 06:31:48;;;;;;;8.05;4.47;;;18.80;47.80;;;;;;5039946;28;20316;-54
2024/01/11 06:34:14;;;;;;;6.75;4.03;;;18.80;47.60;;;;;;5047056;28;20503;-56
2024/01/11 06:36:40;;;;;;;7.00;3.67;;;18.80;47.60;;;;;;5047419;28;20025;-54
2024/01/11 06:39:06;;;;;;;6.13;3.63;;;18.80;47.90;;;;;;5044897;28;20037;-50
2024/01/11 06:41:32;;;;;;;11.05;4.15;;;18.80;47.90;;;;;;5047314;28;20429;-51
2024/01/11 06:43:57;;;;;;;9.25;4.25;;;18.80;47.50;;;;;;5071612;22;20143;-57
2024/01/11 06:46:23;;;;;;;12.23;4.95;;;18.80;47.80;;;;;;5053498;28;20024;-54
2024/01/11 06:48:49;;;;;;;9.15;4.07;;;18.80;47.30;;;;;;5050491;28;20027;-54
2024/01/11 06:51:16;;;;;;;9.43;4.53;;;18.80;48.20;;;;;;5049880;28;20032;-58
2024/01/11 06:53:42;;;;;;;7.40;4.22;;;18.80;48.00;;;;;;5049417;28;20017;-54
2024/01/11 06:56:19;;;;;;;8.45;4.70;;;18.80;48.00;;;;;;5049348;28;20423;-53
2024/01/11 06:58:46;;;;;;;8.88;4.38;;;18.80;48.10;;;;;;5050607;28;20508;-51
2024/01/11 07:01:16;;;;;;;11.82;4.40;;;18.80;48.10;;;;;;5055079;28;20452;-58
2024/01/11 07:03:42;;;;;;;7.70;4.07;;;18.80;48.10;;;;;;5041318;28;20098;-59
2024/01/11 07:06:08;;;;;;;10.85;4.32;;;18.80;48.10;;;;;;5048165;28;20024;-53
2024/01/11 07:08:34;;;;;;;7.53;4.10;;;18.80;48.20;;;;;;5050120;28;20029;-51
2024/01/11 07:11:04;;;;;;;9.45;4.40;;;18.80;48.00;;;;;;5051909;28;20037;-57
2024/01/11 07:13:33;;;;;;;8.23;4.35;;;18.80;47.70;;;;;;5052416;28;20021;-57
2024/01/11 07:15:59;;;;;;;10.10;5.18;;;18.80;47.60;;;;;;5048683;28;20044;-53
2024/01/11 07:18:25;;;;;;;10.32;4.95;;;18.80;47.80;;;;;;5056122;28;20081;-54
2024/01/11 07:20:52;;;;;;;11.75;4.50;;;18.80;47.90;;;;;;5048162;28;20520;-52
2024/01/11 07:23:18;;;;;;;9.82;4.60;;;18.80;47.20;;;;;;5049218;28;20035;-56
2024/01/11 07:25:44;;;;;;;11.40;5.00;;;18.90;47.60;;;;;;5048995;28;20404;-53
2024/01/11 07:28:10;;;;;;;15.15;5.50;;;18.90;47.30;;;;;;5048622;28;20489;-53
2024/01/11 07:30:36;;;;;;;8.75;4.68;;;19.00;48.30;;;;;;5049103;28;20082;-56
2024/01/11 07:33:02;;;;;;;9.23;4.90;;;19.00;48.60;;;;;;5049153;28;20028;-51
2024/01/11 07:35:27;;;;;;;13.45;4.95;;;19.00;49.20;;;;;;5041630;28;20017;-53
2024/01/11 07:37:54;;;;;;;9.18;4.78;;;19.10;49.20;;;;;;5052620;28;20160;-58
2024/01/11 07:40:19;;;;;;;21.98;5.97;;;19.00;49.30;;;;;;5052189;28;20060;-56
2024/01/11 07:42:48;;;;;;;24.35;5.78;;;19.00;50.50;;;;;;5052293;28;20055;-56
2024/01/11 07:45:14;;;;;;;10.15;4.88;;;19.00;50.80;;;;;;5050776;28;20395;-62
2024/01/11 07:47:40;;;;;;;18.27;4.82;;;19.00;51.60;;;;;;5050404;28;20028;-53
2024/01/11 07:50:07;;;;;;;12.48;5.32;;;19.10;51.40;;;;;;5051351;28;20075;-59
2024/01/11 07:52:36;;;;;;;18.63;5.82;;;19.10;50.90;;;;;;5052548;28;20028;-58
2024/01/11 07:55:07;;;;;;;21.10;10.07;;;19.10;50.30;;;;;;5052267;28;20135;-59
2024/01/11 07:57:37;;;;;;;22.55;13.10;;;18.90;45.80;;;;;;5055599;28;20432;-59
2024/01/11 08:00:08;;;;;;;25.25;14.32;;;18.40;40.40;;;;;;5050959;28;20047;-59
2024/01/11 08:02:40;;;;;;;24.92;13.10;;;18.00;38.60;;;;;;5045596;28;20522;-58
2024/01/11 08:05:06;;;;;;;22.58;12.88;;;17.80;39.30;;;;;;5052550;28;20025;-59
2024/01/11 08:07:32;;;;;;;24.38;12.88;;;17.90;39.10;;;;;;5052320;28;20429;-58
2024/01/11 08:09:58;;;;;;;27.40;11.68;;;18.10;39.60;;;;;;5051037;28;20017;-59
2024/01/11 08:12:24;;;;;;;22.00;11.20;;;18.10;39.80;;;;;;5051019;28;20121;-58
2024/01/11 08:14:50;;;;;;;23.92;10.57;;;18.20;40.70;;;;;;5052112;28;20021;-54
2024/01/11 08:17:16;;;;;;;20.88;10.02;;;18.30;40.40;;;;;;5051846;28;20043;-54
2024/01/11 08:19:42;;;;;;;24.45;9.68;;;18.40;41.40;;;;;;5051662;28;20032;-54
2024/01/11 08:22:09;;;;;;;21.13;10.07;;;18.40;42.10;;;;;;5051849;28;20025;-58
2024/01/11 08:24:35;;;;;;;16.45;8.82;;;18.50;43.00;;;;;;5051584;28;20029;-55
2024/01/11 08:27:01;;;;;;;17.67;8.65;;;18.50;42.90;;;;;;5051779;28;20495;-58
2024/01/11 08:29:27;;;;;;;19.13;8.77;;;18.60;43.10;;;;;;5051274;28;20104;-56
2024/01/11 08:31:56;;;;;;;21.80;8.13;;;18.60;43.50;;;;;;5051791;28;20506;-53
2024/01/11 23:10:13;;;;;;;13.63;6.43;;;18.40;45.60;;;;;;5086500;28;20389;-53
2024/01/11 23:12:40;;;;;;;16.13;6.30;;;18.70;49.00;;;;;;5067042;28;20024;-51
2024/01/11 23:15:06;;;;;;;17.33;6.65;;;18.70;50.00;;;;;;5071596;23;20076;-55
2024/01/11 23:17:32;;;;;;;10.73;5.65;;;18.70;49.10;;;;;;5047741;28;20036;-54
2024/01/11 23:19:58;;;;;;;13.20;5.80;;;18.80;50.40;;;;;;5047458;28;20021;-53
2024/01/11 23:22:24;;;;;;;16.70;6.55;;;18.80;49.90;;;;;;5047672;28;20512;-57
2024/01/11 23:24:50;;;;;;;13.40;6.10;;;18.80;49.80;;;;;;5058937;28;20449;-57
2024/01/11 23:27:16;;;;;;;16.90;5.82;;;18.80;48.70;;;;;;5067620;28;20058;-60
2024/01/11 23:29:42;;;;;;;13.70;5.78;;;18.80;50.10;;;;;;5066873;28;20029;-57
2024/01/11 23:32:08;;;;;;;17.80;6.35;;;18.90;49.80;;;;;;5067532;28;20039;-58
2024/01/11 23:34:34;;;;;;;15.38;5.65;;;18.90;51.30;;;;;;5067411;28;20558;-55
2024/01/11 23:37:00;;;;;;;13.20;5.50;;;18.90;53.60;;;;;;5067141;28;20040;-57
2024/01/11 23:39:26;;;;;;;17.80;5.85;;;18.90;50.20;;;;;;5066907;28;20456;-57
2024/01/11 23:41:53;;;;;;;13.88;6.60;;;18.90;50.50;;;;;;5067174;28;20058;-57
2024/01/11 23:44:19;;;;;;;18.02;6.70;;;18.90;50.90;;;;;;5067095;28;20029;-50
2024/01/11 23:46:45;;;;;;;14.82;5.90;;;18.90;50.80;;;;;;5067136;28;20472;-54
2024/01/11 23:49:11;;;;;;;23.23;6.13;;;18.90;51.00;;;;;;5066850;28;20036;-57
2024/01/11 23:51:37;;;;;;;15.02;5.68;;;18.90;50.70;;;;;;5067564;28;20016;-56
2024/01/11 23:54:02;;;;;;;11.68;6.00;;;18.90;51.20;;;;;;5067048;28;20052;-56
2024/01/11 23:56:30;;;;;;;14.15;5.93;;;18.90;50.90;;;;;;5067059;28;20021;-57
2024/01/11 23:58:55;;;;;;;12.77;5.65;;;18.90;50.70;;;;;;5066468;28;20442;-54
